OBBI/BAH METAR and TAF weather

Enter ICAO airport designator
Station Type Date Time Source
OBBI METAR 2019/10/15 21:00 UTC NOAA

OBBI 152100Z VRB01KT 7000 SKC 31/25 Q1014 NOSIG


Station Type Date Time Source
OBBI Decoded METAR 2019/10/15 21:00 UTC NOAA

Bahrain International Airport , Bahrain (OBBI) 26-16N 050-39E 2M
Oct 15, 2019 - 05:00 PM EDT / 2019.10.15 2100 UTC
Wind: Variable at 1 MPH (1 KT):0
Visibility: 4 mile(s):0
Sky conditions: clear
Temperature: 87 F (31 C)
Heat index: 97.5 F (36.4 C):1
Dew Point: 77 F (25 C)
Relative Humidity: 70%
Pressure (altimeter): 29.94 in. Hg (1014 hPa)
ob: OBBI 152100Z VRB01KT 7000 SKC 31/25 Q1014 NOSIG
cycle: 21

Station Type Date Time Source
OBBI TAF 2019/10/15 18:43 UTC NOAA

TAF OBBI 151700Z 1518/1700 VRB05KT 8000 NSC PROB30
TEMPO 1600/1604 5000 HZ
BECMG 1604/1606 35010KT

Example: see airport list